createdAt,value
2023-03-07T00:01:09.284Z,1.20
2023-03-07T00:03:36.926Z,1.02
2023-03-07T00:06:10.377Z,1.05
2023-03-07T00:08:37.752Z,1.00
2023-03-07T00:11:07.753Z,1.40
2023-03-07T00:13:36.386Z,0.80
2023-03-07T00:16:05.149Z,1.00
2023-03-07T00:18:32.921Z,1.00
2023-03-07T00:21:01.687Z,0.82
2023-03-07T00:23:28.720Z,0.90
2023-03-07T00:26:07.312Z,0.88
2023-03-07T00:28:34.802Z,1.10
2023-03-07T00:31:04.847Z,0.75
2023-03-07T00:33:32.019Z,1.05
2023-03-07T00:36:06.069Z,1.25
2023-03-07T00:38:33.580Z,1.05
2023-03-07T00:41:02.539Z,1.05
2023-03-07T00:43:30.105Z,1.02
2023-03-07T00:45:57.659Z,1.00
2023-03-07T00:48:25.828Z,0.85
2023-03-07T00:50:53.432Z,1.00
2023-03-07T00:53:21.355Z,0.77
2023-03-07T00:56:00.487Z,0.90
2023-03-07T00:58:29.292Z,0.80
2023-03-07T05:00:17.975Z,1.30
2023-03-07T05:02:46.222Z,1.48
2023-03-07T05:05:12.905Z,1.48
2023-03-07T05:07:39.631Z,2.13
2023-03-07T05:10:06.934Z,1.83
2023-03-07T05:12:33.645Z,1.75
2023-03-07T05:15:00.914Z,2.33
2023-03-07T05:17:30.314Z,2.05
2023-03-07T05:19:57.232Z,1.95
2023-03-07T05:22:24.248Z,1.77
2023-03-07T05:24:50.989Z,1.67
2023-03-07T05:27:17.710Z,2.05
2023-03-07T05:29:44.498Z,2.22
2023-03-07T05:32:11.417Z,2.20
2023-03-07T05:34:38.265Z,1.92
2023-03-07T05:37:05.226Z,2.00
2023-03-07T05:39:31.911Z,1.83
2023-03-07T05:41:58.608Z,1.70
2023-03-07T05:44:25.313Z,2.10
2023-03-07T05:46:52.087Z,2.15
2023-03-07T05:49:19.552Z,2.30
2023-03-07T05:51:46.334Z,2.40
2023-03-07T05:54:13.041Z,2.42
2023-03-07T05:56:39.737Z,2.40
2023-03-07T05:59:07.809Z,2.25
2023-03-07T06:01:34.937Z,1.98
2023-03-07T06:04:01.640Z,2.47
2023-03-07T06:06:28.477Z,3.20
2023-03-07T06:08:55.199Z,2.83
2023-03-07T06:11:21.983Z,3.70
2023-03-07T06:13:48.744Z,3.30
2023-03-07T06:16:15.569Z,3.17
2023-03-07T06:18:42.274Z,3.50
2023-03-07T06:21:12.905Z,3.10
2023-03-07T06:23:39.711Z,2.40
2023-03-07T06:26:07.628Z,3.08
2023-03-07T06:28:35.194Z,2.70
2023-03-07T06:31:01.993Z,3.53
2023-03-07T06:33:28.795Z,3.20
2023-03-07T06:35:55.601Z,4.20
2023-03-07T06:38:22.290Z,2.90
2023-03-07T06:40:56.504Z,3.65
2023-03-07T06:43:23.356Z,3.92
2023-03-07T06:45:50.197Z,3.65
2023-03-07T06:48:18.097Z,4.32
2023-03-07T06:50:45.635Z,3.90
2023-03-07T06:53:12.403Z,4.35
2023-03-07T06:55:39.160Z,3.95
2023-03-07T06:58:05.888Z,5.18
2023-03-07T07:00:32.590Z,4.50
2023-03-07T07:02:59.421Z,4.57
2023-03-07T07:05:26.423Z,4.95
2023-03-07T07:07:53.328Z,4.72
2023-03-07T07:10:20.101Z,4.68
2023-03-07T07:12:46.824Z,5.80
2023-03-07T07:15:13.563Z,5.45
2023-03-07T07:17:40.348Z,4.40
2023-03-07T07:20:07.744Z,5.30
2023-03-07T07:22:35.818Z,4.82
2023-03-07T07:25:02.473Z,4.20
2023-03-07T07:27:29.921Z,5.60
2023-03-07T07:29:56.738Z,5.22
2023-03-07T07:32:23.712Z,6.20
2023-03-07T07:34:50.583Z,5.32
2023-03-07T07:37:17.422Z,4.90
2023-03-07T07:39:44.288Z,6.00
2023-03-07T07:42:12.193Z,6.80
2023-03-07T07:44:39.024Z,6.60
2023-03-07T07:47:05.819Z,5.43
2023-03-07T07:49:32.633Z,5.97
2023-03-07T07:51:59.582Z,5.97
2023-03-07T07:54:26.332Z,6.05
2023-03-07T07:56:53.263Z,4.90
2023-03-07T07:59:20.149Z,6.10
2023-03-07T08:01:46.936Z,5.60
2023-03-07T08:04:13.730Z,6.50
2023-03-07T08:06:40.582Z,5.68
2023-03-07T08:09:07.344Z,6.22
2023-03-07T08:11:34.812Z,4.43
2023-03-07T08:14:03.224Z,5.75
2023-03-07T08:16:30.137Z,5.50
2023-03-07T08:18:58.027Z,6.80
2023-03-07T08:21:26.101Z,9.90
2023-03-07T08:23:56.221Z,15.43
2023-03-07T08:26:23.598Z,8.45
2023-03-07T08:28:50.573Z,6.95
2023-03-07T08:31:23.813Z,4.50
2023-03-07T08:33:51.591Z,4.60
2023-03-07T08:36:19.183Z,4.07
2023-03-07T08:38:51.576Z,4.45
2023-03-07T08:43:46.322Z,3.22
2023-03-07T08:46:13.211Z,3.40
2023-03-07T08:48:40.116Z,2.90
2023-03-07T08:51:09.539Z,3.60
2023-03-07T08:53:37.276Z,2.60
2023-03-07T08:56:12.661Z,2.92
2023-03-07T08:58:39.521Z,2.55
2023-03-07T09:01:08.158Z,2.60
2023-03-07T09:03:35.709Z,3.20
2023-03-07T09:06:04.030Z,3.00
2023-03-07T09:08:33.996Z,3.08
2023-03-07T09:11:03.673Z,2.83
2023-03-07T09:13:30.658Z,2.78
2023-03-07T09:15:57.547Z,3.50
2023-03-07T09:18:24.448Z,3.70
2023-03-07T09:20:51.359Z,4.22
2023-03-07T09:23:18.164Z,3.13
2023-03-07T09:25:44.963Z,3.70
2023-03-07T09:28:11.862Z,3.15
2023-03-07T09:30:38.707Z,5.65
2023-03-07T09:33:05.558Z,3.88
2023-03-07T09:35:32.448Z,2.65
2023-03-07T09:37:59.950Z,3.22
2023-03-07T09:40:28.249Z,2.85
2023-03-07T09:43:04.167Z,2.90
2023-03-07T09:45:58.878Z,3.60
2023-03-07T09:49:07.274Z,3.00
2023-03-07T09:51:42.777Z,3.88
2023-03-07T09:54:14.277Z,3.45
2023-03-07T09:56:54.847Z,3.72
2023-03-07T09:59:41.579Z,4.53
2023-03-07T10:02:50.171Z,3.88
2023-03-07T10:05:41.368Z,2.88
2023-03-07T10:08:15.862Z,3.60
2023-03-07T10:11:21.562Z,3.17
2023-03-07T10:14:24.605Z,3.58
2023-03-07T10:17:07.434Z,3.28
2023-03-07T10:19:40.592Z,3.17
2023-03-07T10:22:43.746Z,3.67
2023-03-07T10:25:21.768Z,2.92
2023-03-07T10:27:51.734Z,3.35
2023-03-07T10:30:20.975Z,3.08
2023-03-07T10:33:11.736Z,2.95
2023-03-07T10:35:43.735Z,2.40
2023-03-07T10:38:37.867Z,3.78
2023-03-07T10:41:17.439Z,3.20
2023-03-07T10:43:45.999Z,2.97
2023-03-07T10:46:26.186Z,3.65
2023-03-07T10:49:12.172Z,3.35
2023-03-07T10:51:48.376Z,3.55
2023-03-07T10:54:19.413Z,2.55
2023-03-07T10:57:14.841Z,3.40
2023-03-07T10:59:49.985Z,3.10
2023-03-07T11:02:46.516Z,3.20
2023-03-07T11:05:32.705Z,2.28
2023-03-07T11:08:31.899Z,2.30
2023-03-07T11:11:04.562Z,3.10
2023-03-07T11:16:26.026Z,3.13
2023-03-07T11:18:52.888Z,3.47
2023-03-07T11:21:31.977Z,3.25
2023-03-07T11:24:29.577Z,2.63
2023-03-07T11:26:58.720Z,2.38
2023-03-07T11:29:28.316Z,2.67
2023-03-07T11:31:58.249Z,2.58
2023-03-07T11:34:35.330Z,2.40
2023-03-07T11:37:26.093Z,2.22
2023-03-07T11:40:03.835Z,2.03
2023-03-07T11:42:51.979Z,2.00
2023-03-07T11:45:32.271Z,2.38
2023-03-07T11:48:19.715Z,2.58
2023-03-07T11:50:54.851Z,2.40
2023-03-07T11:53:29.305Z,2.17
2023-03-07T11:56:21.585Z,2.72
2023-03-07T11:59:14.226Z,1.60
2023-03-07T12:01:52.962Z,3.05
2023-03-07T12:04:47.372Z,2.05
2023-03-07T12:07:32.855Z,1.83
2023-03-07T12:10:08.670Z,2.03
2023-03-07T12:12:50.420Z,2.22
2023-03-07T12:15:44.826Z,2.00
2023-03-07T12:18:26.744Z,2.75
2023-03-07T12:21:16.831Z,2.33
2023-03-07T12:23:57.034Z,2.03
2023-03-07T12:37:14.130Z,3.05
2023-03-07T12:39:50.748Z,2.63
2023-03-07T12:42:32.063Z,2.42
2023-03-07T12:45:08.016Z,2.50
2023-03-07T12:47:50.052Z,2.88
2023-03-07T12:50:23.281Z,1.55
2023-03-07T12:53:00.159Z,2.25
2023-03-07T12:55:49.217Z,3.33
2023-03-07T12:58:40.259Z,2.90
2023-03-07T13:01:19.515Z,2.70
2023-03-07T13:04:32.051Z,3.08
2023-03-07T13:07:08.768Z,3.13
2023-03-07T13:09:39.289Z,2.92
2023-03-07T13:12:26.978Z,2.95
2023-03-07T13:15:00.896Z,2.97
2023-03-07T13:17:34.144Z,2.22
2023-03-07T13:20:16.450Z,3.55
2023-03-07T13:22:45.798Z,2.53
2023-03-07T13:25:45.412Z,2.22
2023-03-07T13:28:32.952Z,3.70
2023-03-07T13:31:20.646Z,1.92
2023-03-07T13:33:50.602Z,2.30
2023-03-07T13:36:40.142Z,2.45
2023-03-07T13:39:36.028Z,3.08
2023-03-07T13:42:02.867Z,2.40
2023-03-07T13:44:49.813Z,1.75
2023-03-07T13:47:43.028Z,1.30
2023-03-07T13:50:34.862Z,1.33
2023-03-07T13:53:18.556Z,1.80
2023-03-07T13:55:50.880Z,1.63
2023-03-07T13:58:26.710Z,1.58
2023-03-07T14:01:00.801Z,2.00
2023-03-07T14:03:42.374Z,1.38
2023-03-07T14:06:40.899Z,1.13
2023-03-07T14:09:13.415Z,3.22
2023-03-07T14:14:42.085Z,1.70
2023-03-07T14:17:53.833Z,1.95
2023-03-07T14:20:32.298Z,1.73
2023-03-07T14:23:08.073Z,2.20
2023-03-07T14:25:38.153Z,1.70
2023-03-07T14:28:20.497Z,2.00
2023-03-07T14:31:20.339Z,2.30
2023-03-07T14:33:47.277Z,2.40
2023-03-07T14:36:20.244Z,2.42
2023-03-07T14:38:48.774Z,2.30
2023-03-07T14:41:46.272Z,1.80
2023-03-07T14:44:26.945Z,1.85
2023-03-07T14:47:16.106Z,2.15
2023-03-07T14:49:51.895Z,3.85
2023-03-07T14:52:31.037Z,2.47
2023-03-07T14:55:04.863Z,1.98
2023-03-07T14:57:31.704Z,1.95
2023-03-07T15:00:23.837Z,1.40
2023-03-07T15:02:53.797Z,1.77
2023-03-07T15:05:35.976Z,2.30
2023-03-07T15:08:03.256Z,1.92
2023-03-07T15:10:33.806Z,2.08
2023-03-07T15:13:06.009Z,2.70
2023-03-07T15:15:44.963Z,1.52
2023-03-07T15:18:24.102Z,1.25
2023-03-07T15:20:53.429Z,1.13
2023-03-07T15:23:22.349Z,0.90
2023-03-07T15:25:50.262Z,1.73
2023-03-07T15:28:19.747Z,1.83
2023-03-07T15:30:51.127Z,2.00
2023-03-07T15:33:19.938Z,1.42
2023-03-07T15:36:06.319Z,1.48
2023-03-07T15:38:33.885Z,1.85
2023-03-07T15:41:00.903Z,2.35
2023-03-07T15:43:34.916Z,1.38
2023-03-07T15:46:08.402Z,1.70
2023-03-07T15:48:35.298Z,1.33
2023-03-07T15:51:06.459Z,1.85
2023-03-07T15:53:41.679Z,1.58
2023-03-07T15:56:34.505Z,1.02
2023-03-07T15:59:15.508Z,1.80
2023-03-07T16:01:42.573Z,2.42
2023-03-07T16:04:37.512Z,1.77
2023-03-07T16:07:04.821Z,1.63
2023-03-07T16:09:31.646Z,1.60
2023-03-07T16:11:58.538Z,2.20
2023-03-07T16:14:29.604Z,2.28
2023-03-07T16:17:06.922Z,2.15
2023-03-07T16:19:33.963Z,2.58
2023-03-07T16:22:00.932Z,14.60
2023-03-07T16:24:27.874Z,17.77
2023-03-07T16:26:54.660Z,10.35
2023-03-07T16:29:23.140Z,4.50
2023-03-07T16:31:50.060Z,3.78
2023-03-07T16:34:19.442Z,2.65
2023-03-07T16:36:48.044Z,2.67
2023-03-07T16:39:15.786Z,3.05
2023-03-07T16:41:50.122Z,2.80
2023-03-07T16:44:18.921Z,3.60
2023-03-07T16:46:51.558Z,3.63
2023-03-07T16:49:21.936Z,2.60
2023-03-07T16:52:04.772Z,2.70
2023-03-07T16:54:34.216Z,2.72
2023-03-07T16:57:02.549Z,3.85
2023-03-07T16:59:37.508Z,2.95
2023-03-07T17:02:16.219Z,3.60
2023-03-07T17:04:44.468Z,5.35
2023-03-07T17:07:23.522Z,5.00
2023-03-07T17:09:50.763Z,3.97
2023-03-07T17:12:22.774Z,3.50
2023-03-07T17:14:49.892Z,3.47
2023-03-07T17:17:30.364Z,4.05
2023-03-07T17:19:57.280Z,3.85
2023-03-07T17:22:24.026Z,4.35
2023-03-07T17:24:50.899Z,3.53
2023-03-07T17:27:19.019Z,4.18
2023-03-07T17:29:53.025Z,3.85
2023-03-07T17:32:19.985Z,3.58
2023-03-07T17:34:47.374Z,4.13
2023-03-07T17:37:14.330Z,3.45
2023-03-07T17:39:42.417Z,3.75
2023-03-07T17:42:09.815Z,4.28
2023-03-07T17:44:36.885Z,6.55
2023-03-07T17:47:03.961Z,3.78
2023-03-07T17:49:35.908Z,3.58
2023-03-07T17:52:04.723Z,4.60
2023-03-07T17:54:32.855Z,3.92
2023-03-07T17:57:00.110Z,5.45
2023-03-07T17:59:27.174Z,5.32
2023-03-07T18:01:54.106Z,5.28
2023-03-07T18:04:20.911Z,5.28
2023-03-07T18:06:48.067Z,6.32
2023-03-07T18:09:16.416Z,7.07
2023-03-07T18:11:43.126Z,7.97
2023-03-07T18:14:11.227Z,5.63
2023-03-07T18:16:38.024Z,5.40
2023-03-07T18:19:05.750Z,5.28
2023-03-07T18:21:33.845Z,4.25
2023-03-07T18:24:00.582Z,4.63
2023-03-07T18:26:27.814Z,6.28
2023-03-07T18:28:54.709Z,4.97
2023-03-07T18:31:25.170Z,3.88
2023-03-07T18:33:53.176Z,4.97
2023-03-07T18:36:23.470Z,4.68
2023-03-07T18:38:51.187Z,6.45
2023-03-07T18:41:23.211Z,5.47
2023-03-07T18:43:50.415Z,6.07
2023-03-07T18:46:19.324Z,6.53
2023-03-07T18:48:46.311Z,7.25
2023-03-07T18:51:19.401Z,6.78
2023-03-07T18:53:46.327Z,6.03
2023-03-07T18:56:15.803Z,6.82
2023-03-07T18:58:43.827Z,6.95
2023-03-07T19:01:12.181Z,7.85
2023-03-07T19:03:40.237Z,7.15
2023-03-07T19:06:08.302Z,6.20
2023-03-07T19:08:35.816Z,6.00
2023-03-07T19:11:08.496Z,5.90
2023-03-07T19:13:36.939Z,7.10
2023-03-07T19:16:11.543Z,6.40
2023-03-07T19:18:40.796Z,5.22
2023-03-07T19:21:14.917Z,6.93
2023-03-07T19:23:43.461Z,5.60
2023-03-07T19:26:17.816Z,6.05
2023-03-07T19:28:47.054Z,6.35
2023-03-07T19:31:20.857Z,6.90
2023-03-07T19:33:49.326Z,5.45
2023-03-07T19:36:26.174Z,5.40
2023-03-07T19:38:57.160Z,6.07
2023-03-07T19:41:26.486Z,5.82
2023-03-07T19:43:54.933Z,6.80
2023-03-07T19:46:22.354Z,10.02
2023-03-07T19:48:49.514Z,11.65
2023-03-07T19:51:25.294Z,7.47
2023-03-07T19:53:55.291Z,18.42
2023-03-07T19:56:27.434Z,17.57
2023-03-07T19:58:55.008Z,18.42
2023-03-07T20:01:23.272Z,11.98
2023-03-07T20:03:51.082Z,19.13
2023-03-07T20:06:27.545Z,8.23
2023-03-07T20:08:56.520Z,5.85
2023-03-07T20:11:27.817Z,9.40
2023-03-07T20:13:57.618Z,26.73
2023-03-07T20:16:29.914Z,26.17
2023-03-07T20:19:00.444Z,15.95
2023-03-07T20:21:29.954Z,15.45
2023-03-07T20:24:00.642Z,11.70
2023-03-07T20:26:33.503Z,11.55
2023-03-07T20:29:01.918Z,9.77
2023-03-07T20:31:30.521Z,8.38
2023-03-07T20:33:59.393Z,8.80
2023-03-07T20:36:28.717Z,7.00
2023-03-07T20:38:57.587Z,6.63
2023-03-07T20:41:27.848Z,6.00
2023-03-07T20:43:59.494Z,5.47
2023-03-07T20:46:27.075Z,5.17
2023-03-07T20:48:55.751Z,5.43
2023-03-07T20:51:25.038Z,5.50
2023-03-07T20:53:55.483Z,6.18
2023-03-07T20:56:23.259Z,5.85
2023-03-07T20:58:50.358Z,7.75
2023-03-07T21:01:18.866Z,7.82
2023-03-07T21:03:48.169Z,7.25
2023-03-07T21:06:15.563Z,8.10
2023-03-07T21:08:43.192Z,8.07
2023-03-07T21:11:18.732Z,8.95
2023-03-07T21:13:47.697Z,8.63
2023-03-07T21:16:15.752Z,7.95
2023-03-07T21:18:43.362Z,8.05
2023-03-07T21:21:15.227Z,8.27
2023-03-07T21:23:43.801Z,8.65
2023-03-07T21:26:32.421Z,7.82
2023-03-07T21:29:02.320Z,7.80
2023-03-07T21:31:34.758Z,7.25
2023-03-07T21:34:05.218Z,7.97
2023-03-07T21:36:33.269Z,7.57
2023-03-07T21:39:02.003Z,8.68
2023-03-07T21:41:29.809Z,7.57
2023-03-07T21:43:57.793Z,8.05
2023-03-07T21:46:26.734Z,7.53
2023-03-07T21:48:54.512Z,8.45
2023-03-07T21:51:22.752Z,7.80
2023-03-07T21:53:49.551Z,7.53
2023-03-07T21:56:17.369Z,7.80
2023-03-07T21:58:48.638Z,7.95
2023-03-07T22:01:25.163Z,7.88
2023-03-07T22:03:54.369Z,7.63
2023-03-07T22:06:21.601Z,7.57
2023-03-07T22:08:48.383Z,7.50
2023-03-07T22:11:15.458Z,7.80
2023-03-07T22:13:42.753Z,7.53
2023-03-07T22:16:15.124Z,7.57
2023-03-07T22:18:42.028Z,7.25
2023-03-07T22:21:13.450Z,8.73
2023-03-07T22:23:40.599Z,8.18
2023-03-07T22:26:09.230Z,7.82
2023-03-07T22:28:36.055Z,7.93
2023-03-07T22:31:05.471Z,7.50
2023-03-07T22:33:32.904Z,8.52
2023-03-07T22:36:02.108Z,8.52
2023-03-07T22:38:29.229Z,7.47
2023-03-07T22:41:03.857Z,8.23
2023-03-07T22:43:32.318Z,8.32
2023-03-07T22:45:59.366Z,6.95
2023-03-07T22:48:26.917Z,7.95
2023-03-07T22:50:54.046Z,7.88
2023-03-07T22:53:21.237Z,7.80
2023-03-07T22:55:47.938Z,7.68
2023-03-07T22:58:14.910Z,6.57
2023-03-07T23:00:43.428Z,6.82
2023-03-07T23:03:10.959Z,6.25
2023-03-07T23:05:37.753Z,8.25
2023-03-07T23:08:04.761Z,8.57
2023-03-07T23:10:31.988Z,8.63
2023-03-07T23:12:58.886Z,10.55
2023-03-07T23:15:25.987Z,9.75
2023-03-07T23:17:53.035Z,8.10
2023-03-07T23:20:19.963Z,10.25
2023-03-07T23:22:46.909Z,8.75
2023-03-07T23:25:14.977Z,9.65
2023-03-07T23:27:42.031Z,10.15
2023-03-07T23:30:09.728Z,8.77
2023-03-07T23:32:36.686Z,8.90
2023-03-07T23:35:04.151Z,11.52
2023-03-07T23:37:30.858Z,9.77
2023-03-07T23:39:58.481Z,10.48
2023-03-07T23:42:25.320Z,9.57
2023-03-07T23:44:52.114Z,8.70
2023-03-07T23:47:18.802Z,11.38
2023-03-07T23:49:45.560Z,13.88
2023-03-07T23:52:12.397Z,11.00
2023-03-07T23:54:41.875Z,11.07
2023-03-07T23:57:08.747Z,12.13
2023-03-07T23:59:35.508Z,11.70
